Time;durP1;ratioP1;P1;durP2;ratioP2;P2;SDS_P1;SDS_P2;PMS_P1;PMS_P2;Temp;Humidity;BMP_temperature;BMP_pressure;BME280_temperature;BME280_humidity;BME280_pressure;Samples;Min_cycle;Max_cycle;Signal;HPM_P1;HPM_P2
2023/11/18 00:01:38;;;;;;;1.10;0.70;;;11.50;72.80;;;;;;5028938;28;20690;-74
2023/11/18 00:04:05;;;;;;;1.58;0.70;;;11.50;72.80;;;;;;5029948;28;20029;-74
2023/11/18 00:06:32;;;;;;;1.23;0.63;;;11.50;72.90;;;;;;5036538;28;20102;-74
2023/11/18 00:08:58;;;;;;;1.45;0.43;;;11.50;72.90;;;;;;5041493;28;20036;-73
2023/11/18 00:11:25;;;;;;;2.95;1.00;;;11.50;73.00;;;;;;5033879;28;20051;-73
2023/11/18 00:13:51;;;;;;;0.52;0.50;;;11.50;73.00;;;;;;5036910;28;20241;-73
2023/11/18 00:16:17;;;;;;;1.02;0.57;;;11.50;73.00;;;;;;5038271;28;20523;-73
2023/11/18 00:18:43;;;;;;;0.75;0.43;;;11.50;73.00;;;;;;5041202;28;20243;-74
2023/11/18 00:21:10;;;;;;;1.00;0.73;;;11.50;73.10;;;;;;5039967;28;20449;-73
2023/11/18 00:23:36;;;;;;;1.08;0.68;;;11.50;73.10;;;;;;5038105;28;20037;-73
2023/11/18 00:26:06;;;;;;;1.45;0.60;;;11.60;73.30;;;;;;5038525;28;20481;-74
2023/11/18 00:28:33;;;;;;;0.77;0.40;;;11.60;73.30;;;;;;5040899;28;20456;-74
2023/11/18 00:30:59;;;;;;;0.55;0.55;;;11.60;73.30;;;;;;5038155;28;20037;-73
2023/11/18 00:33:27;;;;;;;1.05;0.50;;;11.60;73.30;;;;;;5035928;28;20029;-74
2023/11/18 00:35:54;;;;;;;0.50;0.50;;;11.60;73.30;;;;;;5033538;28;20120;-73
2023/11/18 00:38:20;;;;;;;0.65;0.63;;;11.60;73.40;;;;;;5035684;28;20036;-73
2023/11/18 00:40:46;;;;;;;0.73;0.40;;;11.60;73.40;;;;;;5037332;28;20112;-73
2023/11/18 00:43:12;;;;;;;1.30;0.60;;;11.70;73.70;;;;;;5037153;28;20044;-73
2023/11/18 00:45:40;;;;;;;1.02;0.77;;;11.60;73.50;;;;;;5042311;28;20055;-73
2023/11/18 00:48:06;;;;;;;0.30;0.30;;;11.70;73.70;;;;;;5038197;28;20029;-73
2023/11/18 00:50:33;;;;;;;1.33;0.50;;;11.70;73.80;;;;;;5038673;28;20044;-74
2023/11/18 00:53:00;;;;;;;0.98;0.35;;;11.70;73.80;;;;;;5030655;28;20025;-74
2023/11/18 00:55:26;;;;;;;1.25;0.43;;;11.70;73.90;;;;;;5037283;28;20100;-73
2023/11/18 00:57:52;;;;;;;1.30;0.50;;;11.70;73.90;;;;;;5018302;28;20063;-73
2023/11/18 01:00:21;;;;;;;0.90;0.40;;;11.70;74.00;;;;;;5016214;28;20041;-73
2023/11/18 01:02:49;;;;;;;2.70;0.65;;;11.70;74.00;;;;;;5050242;28;20044;-73
2023/11/18 01:05:16;;;;;;;0.57;0.30;;;11.70;74.00;;;;;;5036337;28;20040;-72
2023/11/18 01:07:42;;;;;;;0.45;0.38;;;11.70;74.00;;;;;;5028825;28;20465;-73
2023/11/18 01:10:09;;;;;;;0.90;0.50;;;11.70;74.10;;;;;;5032492;28;20360;-73
2023/11/18 01:12:36;;;;;;;1.15;0.45;;;11.70;74.10;;;;;;5021062;28;20037;-73
2023/11/18 01:15:03;;;;;;;2.58;0.40;;;11.70;74.10;;;;;;5033981;28;20041;-73
2023/11/18 01:17:31;;;;;;;0.40;0.30;;;11.80;74.30;;;;;;5036424;28;20033;-73
2023/11/18 01:19:58;;;;;;;0.75;0.32;;;11.80;74.40;;;;;;5028640;28;20948;-73
2023/11/18 01:22:25;;;;;;;1.25;0.40;;;11.80;74.40;;;;;;5022096;28;20068;-73
2023/11/18 01:24:51;;;;;;;0.98;0.50;;;11.80;74.40;;;;;;5009515;28;20043;-73
2023/11/18 01:27:19;;;;;;;0.40;0.28;;;11.80;74.40;;;;;;5022591;28;20056;-74
2023/11/18 01:29:49;;;;;;;1.55;0.50;;;11.90;74.60;;;;;;5010701;28;20044;-73
2023/11/18 01:32:17;;;;;;;1.90;0.45;;;11.90;74.60;;;;;;5013334;28;20033;-73
2023/11/18 01:34:49;;;;;;;0.52;0.50;;;11.90;74.70;;;;;;5014055;28;20029;-73
2023/11/18 01:37:16;;;;;;;1.58;0.40;;;11.90;74.70;;;;;;5012193;28;20480;-72
2023/11/18 01:39:42;;;;;;;0.32;0.30;;;11.90;74.70;;;;;;5021240;28;20029;-73
2023/11/18 01:42:09;;;;;;;0.85;0.40;;;11.90;74.70;;;;;;5015203;28;20511;-73
2023/11/18 01:44:35;;;;;;;0.60;0.38;;;11.90;74.70;;;;;;5015258;28;20910;-73
2023/11/18 01:47:05;;;;;;;0.90;0.40;;;11.90;74.80;;;;;;5016346;28;20449;-73
2023/11/18 01:49:32;;;;;;;0.82;0.30;;;11.90;74.80;;;;;;5021736;28;20041;-73
2023/11/18 01:52:01;;;;;;;1.02;0.43;;;12.00;75.00;;;;;;5015303;28;20214;-73
2023/11/18 01:54:32;;;;;;;2.00;0.40;;;12.00;75.10;;;;;;4997580;28;20025;-74
2023/11/18 01:57:00;;;;;;;1.85;0.47;;;12.00;75.10;;;;;;5018273;28;20044;-74
2023/11/18 01:59:29;;;;;;;2.47;1.52;;;12.00;75.10;;;;;;5021235;28;20037;-74
2023/11/18 02:01:59;;;;;;;1.65;0.55;;;12.00;75.10;;;;;;5027973;28;20052;-73
2023/11/18 02:04:26;;;;;;;2.10;0.30;;;12.00;75.20;;;;;;5023269;28;20057;-74
2023/11/18 02:06:53;;;;;;;1.00;0.28;;;12.00;75.20;;;;;;5021199;28;20037;-74
2023/11/18 02:09:28;;;;;;;0.47;0.22;;;12.00;75.20;;;;;;5013830;28;20033;-74
2023/11/18 02:12:09;;;;;;;0.60;0.45;;;12.00;75.20;;;;;;5014679;28;20140;-74
2023/11/18 02:14:39;;;;;;;1.08;0.20;;;12.00;75.20;;;;;;5007049;28;21313;-74
2023/11/18 02:17:09;;;;;;;0.25;0.25;;;12.10;75.50;;;;;;5026812;28;20464;-74
2023/11/18 02:19:40;;;;;;;0.20;0.20;;;12.10;75.50;;;;;;5011608;28;20163;-74
2023/11/18 02:22:07;;;;;;;1.65;0.30;;;12.10;75.50;;;;;;5015614;28;20085;-74
2023/11/18 02:24:40;;;;;;;1.55;0.30;;;12.10;75.50;;;;;;5015482;28;20905;-75
2023/11/18 02:27:07;;;;;;;0.25;0.20;;;12.10;75.50;;;;;;5022285;28;20037;-74
2023/11/18 02:29:41;;;;;;;1.75;0.30;;;12.20;75.70;;;;;;5007670;28;20116;-74
2023/11/18 02:32:30;;;;;;;1.65;0.40;;;12.10;75.70;;;;;;5022295;28;20332;-75
2023/11/18 02:35:02;;;;;;;1.15;0.30;;;12.10;75.60;;;;;;5015334;28;20123;-74
2023/11/18 02:37:32;;;;;;;0.32;0.30;;;12.20;75.80;;;;;;5023764;28;20034;-74
2023/11/18 02:40:14;;;;;;;0.30;0.20;;;12.10;75.60;;;;;;5010903;28;20048;-74
2023/11/18 02:42:43;;;;;;;1.17;0.30;;;12.20;75.80;;;;;;5011467;28;20269;-74
2023/11/18 02:45:16;;;;;;;0.20;0.20;;;12.20;75.80;;;;;;5007961;28;20486;-74
2023/11/18 02:47:46;;;;;;;0.20;0.20;;;12.10;75.60;;;;;;5017469;28;20122;-74
2023/11/18 02:50:13;;;;;;;0.30;0.20;;;12.20;75.90;;;;;;5011783;28;20071;-74
2023/11/18 02:52:45;;;;;;;0.95;0.35;;;12.20;75.90;;;;;;5026028;28;20025;-73
2023/11/18 02:55:13;;;;;;;0.25;0.20;;;12.20;75.90;;;;;;5045268;28;20018;-74
2023/11/18 02:57:40;;;;;;;2.15;0.20;;;12.20;75.90;;;;;;5015387;28;20025;-74
2023/11/18 03:00:17;;;;;;;0.13;0.13;;;12.20;76.00;;;;;;5017482;28;20580;-74
2023/11/18 03:02:46;;;;;;;0.20;0.20;;;12.30;76.20;;;;;;5017317;28;20022;-74
2023/11/18 03:05:17;;;;;;;0.35;0.28;;;12.20;76.00;;;;;;5026331;28;20042;-73
2023/11/18 03:07:53;;;;;;;0.32;0.20;;;12.30;76.20;;;;;;5014713;28;20115;-73
2023/11/18 03:10:20;;;;;;;1.48;0.20;;;12.30;76.20;;;;;;5026413;28;20382;-74
2023/11/18 03:12:49;;;;;;;0.52;0.28;;;12.30;76.20;;;;;;5014601;28;20034;-73
2023/11/18 03:15:19;;;;;;;0.15;0.15;;;12.30;76.20;;;;;;5018896;28;20064;-74
2023/11/18 03:17:48;;;;;;;0.25;0.20;;;12.40;76.30;;;;;;5018755;28;20292;-74
2023/11/18 03:20:16;;;;;;;0.25;0.20;;;12.40;76.30;;;;;;4999077;28;20045;-74
2023/11/18 03:22:44;;;;;;;0.45;0.20;;;12.40;76.30;;;;;;5022758;28;20037;-74
2023/11/18 03:25:11;;;;;;;0.40;0.20;;;12.40;76.30;;;;;;5046012;28;20179;-74
2023/11/18 03:27:37;;;;;;;0.85;0.20;;;12.40;76.40;;;;;;5026315;28;20029;-74
2023/11/18 03:30:06;;;;;;;0.10;0.10;;;12.40;76.40;;;;;;5020756;28;20033;-74
2023/11/18 03:32:32;;;;;;;0.47;0.20;;;12.40;76.40;;;;;;5019566;28;20034;-74
2023/11/18 03:35:01;;;;;;;0.30;0.20;;;12.40;76.40;;;;;;5019742;28;20049;-74
2023/11/18 03:37:27;;;;;;;0.20;0.17;;;12.50;76.60;;;;;;5030030;28;20071;-73
2023/11/18 03:39:53;;;;;;;0.57;0.20;;;12.50;76.60;;;;;;5009381;28;20385;-74
2023/11/18 03:42:19;;;;;;;0.50;0.20;;;12.40;76.40;;;;;;5015883;28;20029;-74
2023/11/18 03:44:47;;;;;;;0.45;0.20;;;12.50;76.70;;;;;;5012801;28;20044;-75
2023/11/18 03:47:16;;;;;;;0.10;0.10;;;12.50;76.70;;;;;;5017103;28;20574;-73
2023/11/18 03:49:42;;;;;;;1.00;0.20;;;12.50;76.70;;;;;;5009855;28;20037;-74
2023/11/18 03:52:08;;;;;;;0.45;0.15;;;12.50;76.70;;;;;;5026240;28;20552;-74
2023/11/18 03:54:34;;;;;;;1.23;0.20;;;12.50;76.70;;;;;;5000931;28;20030;-74
2023/11/18 03:57:00;;;;;;;1.50;0.20;;;12.50;76.70;;;;;;5014149;28;20049;-73
2023/11/18 03:59:26;;;;;;;0.20;0.20;;;12.50;76.70;;;;;;5013750;28;20037;-73
2023/11/18 04:01:52;;;;;;;0.28;0.20;;;12.50;76.70;;;;;;5015531;28;20500;-74
2023/11/18 04:04:19;;;;;;;0.20;0.20;;;12.60;76.90;;;;;;5010516;28;20109;-74
2023/11/18 04:06:46;;;;;;;0.20;0.20;;;12.60;76.90;;;;;;5004280;28;20497;-74
2023/11/18 04:09:14;;;;;;;0.20;0.20;;;12.60;76.90;;;;;;5012499;28;20041;-74
2023/11/18 04:11:41;;;;;;;1.02;0.20;;;12.60;76.90;;;;;;5017218;28;20177;-73
2023/11/18 04:14:08;;;;;;;0.10;0.10;;;12.60;76.90;;;;;;5016446;28;20045;-74
2023/11/18 04:16:34;;;;;;;0.10;0.10;;;12.70;77.10;;;;;;5029112;28;20037;-74
2023/11/18 04:19:00;;;;;;;0.30;0.20;;;12.60;76.90;;;;;;4999415;28;20038;-73
2023/11/18 04:21:26;;;;;;;1.13;0.30;;;12.60;76.90;;;;;;5016459;28;20155;-73
2023/11/18 04:23:52;;;;;;;0.52;0.30;;;12.70;77.10;;;;;;5025515;28;20520;-74
2023/11/18 04:26:18;;;;;;;0.20;0.15;;;12.70;77.20;;;;;;5011881;28;20045;-74
2023/11/18 04:28:45;;;;;;;0.10;0.10;;;12.70;77.10;;;;;;5016842;28;20186;-74
2023/11/18 04:31:12;;;;;;;0.38;0.20;;;12.70;77.20;;;;;;5027204;28;20025;-74
2023/11/18 04:33:40;;;;;;;0.95;0.20;;;12.70;77.20;;;;;;5017519;28;20034;-74
2023/11/18 04:36:09;;;;;;;0.60;0.30;;;12.70;77.20;;;;;;5030796;28;20118;-74
2023/11/18 04:38:36;;;;;;;0.50;0.30;;;12.80;77.40;;;;;;5031019;28;20034;-74
2023/11/18 04:41:03;;;;;;;0.35;0.20;;;12.70;77.30;;;;;;5027549;28;20988;-74
2023/11/18 04:43:30;;;;;;;0.40;0.40;;;12.80;77.50;;;;;;5014368;28;20445;-74
2023/11/18 04:45:56;;;;;;;0.65;0.63;;;12.80;77.50;;;;;;5025253;28;20037;-74
2023/11/18 04:48:25;;;;;;;0.57;0.20;;;12.80;77.60;;;;;;5011967;28;20029;-74
2023/11/18 04:50:52;;;;;;;0.45;0.35;;;12.80;77.60;;;;;;5030138;28;20469;-74
2023/11/18 04:53:18;;;;;;;0.98;0.28;;;12.80;77.60;;;;;;5014494;28;20048;-74
2023/11/18 04:55:45;;;;;;;0.80;0.25;;;12.90;77.80;;;;;;5016899;28;20493;-74
2023/11/18 04:58:11;;;;;;;0.32;0.28;;;12.90;77.90;;;;;;5014153;28;20037;-74
2023/11/18 05:00:41;;;;;;;0.20;0.20;;;12.90;77.90;;;;;;5015074;28;20030;-75
2023/11/18 05:03:10;;;;;;;1.40;0.40;;;12.90;77.90;;;;;;5013613;28;20042;-74
2023/11/18 05:05:40;;;;;;;1.13;0.30;;;13.00;78.10;;;;;;5013476;28;20021;-75
2023/11/18 05:08:06;;;;;;;0.77;0.32;;;12.90;77.90;;;;;;5011826;28;20179;-74
2023/11/18 05:10:34;;;;;;;1.30;0.20;;;13.00;78.10;;;;;;5017948;28;20084;-74
2023/11/18 05:13:00;;;;;;;0.80;0.30;;;13.00;78.10;;;;;;5020296;28;20036;-74
2023/11/18 05:15:26;;;;;;;0.50;0.30;;;13.00;78.10;;;;;;5031207;28;20026;-73
2023/11/18 05:17:53;;;;;;;1.08;0.30;;;13.00;78.20;;;;;;5030774;28;20079;-75
2023/11/18 05:20:20;;;;;;;1.17;0.30;;;13.10;78.40;;;;;;5023731;28;20047;-76
2023/11/18 05:22:47;;;;;;;1.17;0.50;;;13.10;78.40;;;;;;5032688;28;20056;-75
2023/11/18 05:25:13;;;;;;;1.88;0.25;;;13.10;78.40;;;;;;5028763;28;20033;-76
2023/11/18 05:27:40;;;;;;;1.15;0.50;;;13.10;78.40;;;;;;5031047;28;20068;-75
2023/11/18 05:30:10;;;;;;;0.45;0.40;;;13.10;78.40;;;;;;5027447;28;20037;-75
2023/11/18 05:32:37;;;;;;;1.52;0.40;;;13.20;78.60;;;;;;5031881;28;20041;-75
2023/11/18 05:35:04;;;;;;;1.55;0.40;;;13.20;78.60;;;;;;5027027;28;20045;-76
2023/11/18 05:37:35;;;;;;;1.80;0.50;;;13.20;78.60;;;;;;5029020;28;20103;-75
2023/11/18 05:40:09;;;;;;;1.80;0.50;;;13.20;78.70;;;;;;5024757;28;20037;-74
2023/11/18 05:42:37;;;;;;;0.73;0.30;;;13.30;78.90;;;;;;5024549;28;20037;-73
2023/11/18 05:45:07;;;;;;;1.05;0.40;;;13.30;78.90;;;;;;5028886;28;20423;-74
2023/11/18 05:47:36;;;;;;;3.33;0.93;;;13.30;78.90;;;;;;5030641;28;20041;-73
2023/11/18 05:50:05;;;;;;;0.70;0.40;;;13.30;78.90;;;;;;5024100;28;20057;-74
2023/11/18 05:52:32;;;;;;;1.17;0.47;;;13.30;79.00;;;;;;5025981;28;20029;-75
2023/11/18 05:54:58;;;;;;;1.60;0.35;;;13.30;79.00;;;;;;5022560;28;20025;-74
2023/11/18 05:57:26;;;;;;;1.10;0.40;;;13.40;79.20;;;;;;5018337;28;20044;-75
2023/11/18 05:59:54;;;;;;;0.93;0.90;;;13.40;79.30;;;;;;5020557;28;20207;-74
2023/11/18 06:02:21;;;;;;;1.88;0.70;;;13.40;79.40;;;;;;5024636;28;20399;-74
2023/11/18 06:04:47;;;;;;;0.43;0.30;;;13.40;79.40;;;;;;5014700;28;20813;-74
2023/11/18 06:07:14;;;;;;;1.00;0.52;;;13.40;79.50;;;;;;5034090;28;20044;-74
2023/11/18 06:09:45;;;;;;;2.70;0.43;;;13.40;79.50;;;;;;5022618;28;20037;-74
2023/11/18 06:12:12;;;;;;;0.60;0.40;;;13.40;80.10;;;;;;5035169;28;20037;-75
2023/11/18 06:14:39;;;;;;;2.95;0.57;;;13.50;79.80;;;;;;5022413;28;20029;-74
2023/11/18 06:17:07;;;;;;;1.35;0.60;;;13.50;79.80;;;;;;5026873;28;20501;-74
2023/11/18 06:19:34;;;;;;;0.60;0.40;;;13.50;79.80;;;;;;5018946;28;20729;-74
2023/11/18 06:22:00;;;;;;;0.40;0.40;;;13.50;79.80;;;;;;5026456;28;20045;-74
2023/11/18 06:24:26;;;;;;;1.17;0.40;;;13.50;79.90;;;;;;5032455;28;20029;-73
2023/11/18 06:26:52;;;;;;;1.00;0.70;;;13.60;80.00;;;;;;5024511;28;20236;-74
2023/11/18 06:29:18;;;;;;;0.30;0.30;;;13.60;80.00;;;;;;5026438;28;20112;-73
2023/11/18 06:31:44;;;;;;;1.38;0.35;;;13.60;80.00;;;;;;5022509;28;20072;-74
2023/11/18 06:34:12;;;;;;;1.70;0.38;;;13.60;80.00;;;;;;5021538;28;20243;-74
2023/11/18 06:36:38;;;;;;;2.03;0.47;;;13.60;80.00;;;;;;5034924;28;20654;-75
2023/11/18 06:39:07;;;;;;;1.02;0.38;;;13.70;80.20;;;;;;5031447;28;20021;-74
2023/11/18 06:41:38;;;;;;;1.55;1.45;;;13.70;80.20;;;;;;5019444;28;20057;-74
2023/11/18 06:44:12;;;;;;;1.13;0.50;;;13.70;80.20;;;;;;5023681;28;20048;-74
2023/11/18 06:46:39;;;;;;;0.80;0.40;;;13.70;80.10;;;;;;5023092;28;20041;-75
2023/11/18 06:49:10;;;;;;;2.22;0.45;;;13.80;80.40;;;;;;5018730;28;20037;-75
2023/11/18 06:51:38;;;;;;;1.85;0.63;;;13.70;80.20;;;;;;5026696;28;20580;-75
2023/11/18 06:54:08;;;;;;;2.45;0.40;;;13.80;80.30;;;;;;5026413;28;20025;-74
2023/11/18 06:56:39;;;;;;;1.58;0.60;;;13.80;80.30;;;;;;5021454;28;20444;-73
2023/11/18 06:59:10;;;;;;;0.93;0.65;;;13.80;80.40;;;;;;5021511;28;20160;-74
2023/11/18 07:01:36;;;;;;;1.52;0.50;;;13.80;80.50;;;;;;5022052;28;20052;-74
2023/11/18 07:04:02;;;;;;;1.25;0.60;;;13.80;80.50;;;;;;5018490;28;20030;-74
2023/11/18 07:06:29;;;;;;;0.45;0.38;;;13.80;80.60;;;;;;5015669;28;20825;-74
2023/11/18 07:09:00;;;;;;;0.85;0.50;;;13.90;80.80;;;;;;5030444;28;20080;-73
2023/11/18 07:11:27;;;;;;;2.35;0.80;;;13.80;80.70;;;;;;5013700;28;20037;-73
2023/11/18 07:13:56;;;;;;;1.13;0.60;;;13.80;80.70;;;;;;5020108;28;20032;-74
2023/11/18 07:16:24;;;;;;;0.63;0.50;;;13.90;81.00;;;;;;5022762;28;20040;-74
2023/11/18 07:18:51;;;;;;;1.45;0.30;;;13.90;81.00;;;;;;5021280;28;20129;-76
2023/11/18 07:21:17;;;;;;;1.15;0.60;;;13.90;81.10;;;;;;5019064;28;20076;-77
2023/11/18 07:23:43;;;;;;;1.65;0.32;;;13.90;81.10;;;;;;5018982;28;20116;-75
2023/11/18 07:26:10;;;;;;;0.75;0.30;;;13.90;81.10;;;;;;5010960;28;20567;-76
2023/11/18 07:28:36;;;;;;;0.82;0.30;;;13.90;81.10;;;;;;5024131;28;20033;-73
2023/11/18 07:31:07;;;;;;;1.35;0.70;;;14.00;81.30;;;;;;5019587;28;20044;-75
2023/11/18 07:33:34;;;;;;;3.10;0.50;;;14.00;81.40;;;;;;5015055;28;20037;-76
2023/11/18 07:36:02;;;;;;;1.95;0.35;;;14.00;81.40;;;;;;5019566;28;20092;-77
2023/11/18 07:38:30;;;;;;;3.45;0.55;;;14.00;81.40;;;;;;5015540;28;20084;-74
2023/11/18 07:40:57;;;;;;;0.32;0.30;;;14.10;81.50;;;;;;5010693;28;20064;-77
2023/11/18 07:43:23;;;;;;;15.50;4.10;;;14.10;81.40;;;;;;5014261;28;20037;-77
2023/11/18 07:45:52;;;;;;;13.95;4.28;;;14.10;81.30;;;;;;5014354;28;20475;-76
2023/11/18 07:48:20;;;;;;;12.50;3.22;;;14.20;81.60;;;;;;5016645;28;20080;-76
2023/11/18 07:50:50;;;;;;;8.27;2.03;;;14.30;81.90;;;;;;5016833;28;20044;-77
2023/11/18 07:53:16;;;;;;;7.95;2.33;;;14.30;82.20;;;;;;5021193;28;20155;-75
2023/11/18 07:55:42;;;;;;;8.13;2.47;;;14.40;82.10;;;;;;5023074;28;20523;-76
2023/11/18 07:58:12;;;;;;;9.27;3.75;;;14.40;82.00;;;;;;5010038;28;20022;-75
2023/11/18 08:00:41;;;;;;;8.48;2.17;;;14.50;82.20;;;;;;4992309;28;20779;-75
2023/11/18 08:03:11;;;;;;;6.65;1.88;;;14.50;82.10;;;;;;5011737;28;20041;-75
2023/11/18 08:05:43;;;;;;;10.00;1.85;;;14.50;82.10;;;;;;5007377;28;20034;-75
2023/11/18 08:08:10;;;;;;;7.75;1.98;;;14.50;82.20;;;;;;5013512;28;20038;-75
2023/11/18 08:10:38;;;;;;;6.45;1.65;;;14.50;82.20;;;;;;5015218;28;20033;-74
2023/11/18 08:13:10;;;;;;;3.50;1.15;;;14.50;82.20;;;;;;5017079;28;20029;-76
2023/11/18 08:15:46;;;;;;;3.05;1.40;;;14.50;82.20;;;;;;5020779;28;20037;-75
2023/11/18 08:18:13;;;;;;;3.60;1.20;;;14.50;82.20;;;;;;5011345;28;20428;-75
2023/11/18 08:20:43;;;;;;;3.42;1.20;;;14.50;82.20;;;;;;5008527;28;20034;-75
2023/11/18 08:23:10;;;;;;;4.85;1.88;;;14.50;82.10;;;;;;5035917;28;20066;-77
2023/11/18 08:25:36;;;;;;;3.55;1.17;;;14.50;82.10;;;;;;5014219;28;20142;-76
2023/11/18 08:28:07;;;;;;;3.78;1.17;;;14.60;82.20;;;;;;5018283;28;20249;-74
2023/11/18 08:30:42;;;;;;;2.13;0.80;;;14.60;82.20;;;;;;5013083;28;20044;-74
2023/11/18 08:33:08;;;;;;;5.35;1.33;;;14.60;82.20;;;;;;5014699;28;20029;-74
2023/11/18 08:35:38;;;;;;;2.55;0.90;;;14.60;82.00;;;;;;5014316;28;20496;-73
2023/11/18 08:38:07;;;;;;;4.20;1.25;;;14.60;81.90;;;;;;5017716;28;20550;-75
2023/11/18 08:40:34;;;;;;;3.67;0.73;;;14.70;82.00;;;;;;5012107;28;20060;-75
2023/11/18 08:43:01;;;;;;;4.70;1.10;;;14.70;81.90;;;;;;5011404;28;20044;-74
2023/11/18 08:45:32;;;;;;;2.50;0.77;;;14.70;81.80;;;;;;5011761;28;20479;-75
2023/11/18 08:48:10;;;;;;;2.42;0.98;;;14.70;82.30;;;;;;5014381;28;20086;-74
2023/11/18 08:50:39;;;;;;;1.15;0.80;;;14.70;81.70;;;;;;5025822;28;20524;-75
2023/11/18 08:53:09;;;;;;;2.15;0.73;;;14.80;81.90;;;;;;5004651;28;20037;-75
2023/11/18 08:55:50;;;;;;;1.30;0.60;;;14.80;81.80;;;;;;5049737;28;20028;-76
2023/11/18 08:58:21;;;;;;;1.20;0.70;;;14.80;81.70;;;;;;5017921;28;20260;-76
2023/11/18 09:00:53;;;;;;;0.93;0.60;;;14.90;81.80;;;;;;5012085;28;20406;-75
2023/11/18 09:03:25;;;;;;;2.28;0.90;;;14.90;81.80;;;;;;5025325;28;20131;-75
2023/11/18 09:05:59;;;;;;;0.88;0.60;;;14.90;81.70;;;;;;5023380;28;20056;-76
2023/11/18 09:08:27;;;;;;;1.40;0.80;;;14.90;81.70;;;;;;5020185;28;20029;-75
2023/11/18 09:10:54;;;;;;;1.73;0.73;;;15.00;81.80;;;;;;5016720;28;20033;-75
2023/11/18 09:13:28;;;;;;;1.58;1.30;;;15.00;81.70;;;;;;5009288;28;20033;-75
2023/11/18 09:16:02;;;;;;;2.75;0.75;;;15.00;81.70;;;;;;5015441;28;20513;-75
2023/11/18 09:18:33;;;;;;;2.35;0.70;;;15.00;81.70;;;;;;5018061;28;20029;-74
2023/11/18 09:21:01;;;;;;;1.15;0.88;;;15.10;81.90;;;;;;5012784;28;20516;-74
2023/11/18 09:23:29;;;;;;;1.75;0.90;;;15.10;81.80;;;;;;5035933;28;20067;-75
2023/11/18 09:25:55;;;;;;;1.42;0.60;;;15.10;81.70;;;;;;5043352;28;20496;-77
2023/11/18 09:28:29;;;;;;;1.73;1.05;;;15.20;81.80;;;;;;5030728;28;20040;-74
2023/11/18 09:31:02;;;;;;;0.68;0.50;;;15.20;81.80;;;;;;5015983;28;20449;-74
2023/11/18 09:33:33;;;;;;;1.67;1.08;;;15.30;81.80;;;;;;5029176;28;20091;-75
2023/11/18 09:36:02;;;;;;;0.88;0.65;;;15.30;81.80;;;;;;5016993;28;20380;-74
2023/11/18 09:38:35;;;;;;;0.80;0.52;;;15.30;81.70;;;;;;5025882;28;20390;-74
2023/11/18 09:41:10;;;;;;;1.58;0.70;;;15.30;81.70;;;;;;5008776;28;20299;-75
2023/11/18 09:43:52;;;;;;;1.15;0.50;;;15.30;81.60;;;;;;5018266;28;20549;-73
2023/11/18 09:46:32;;;;;;;1.33;0.77;;;15.40;81.70;;;;;;5018688;28;20095;-74
2023/11/18 09:49:33;;;;;;;0.80;0.40;;;15.40;82.20;;;;;;5013583;28;20080;-75
2023/11/18 09:52:04;;;;;;;0.80;0.50;;;15.50;81.80;;;;;;5021803;28;20432;-75
2023/11/18 09:54:52;;;;;;;0.45;0.40;;;15.50;81.70;;;;;;5028366;28;20132;-76
2023/11/18 09:57:27;;;;;;;0.85;0.50;;;15.50;81.60;;;;;;5018373;28;20318;-76
2023/11/18 10:00:26;;;;;;;1.38;0.40;;;15.60;81.60;;;;;;5021497;28;20072;-75
2023/11/18 10:03:00;;;;;;;1.30;0.63;;;15.60;81.60;;;;;;5020860;28;20546;-75
2023/11/18 10:05:30;;;;;;;0.82;0.50;;;15.60;81.50;;;;;;5023873;28;20064;-76
2023/11/18 10:07:59;;;;;;;0.93;0.40;;;15.60;81.50;;;;;;5017158;28;20128;-75
2023/11/18 10:10:35;;;;;;;0.95;0.47;;;15.60;81.40;;;;;;5023698;28;20560;-76
2023/11/18 10:13:08;;;;;;;0.63;0.45;;;15.60;81.50;;;;;;5039820;28;20045;-75
2023/11/18 10:15:35;;;;;;;;;;;15.60;81.50;;;;;;5022292;28;20505;-76
2023/11/18 10:18:15;;;;;;;1.23;0.50;;;15.60;81.50;;;;;;5021640;28;19920;-76
2023/11/18 10:20:47;;;;;;;1.63;1.38;;;15.60;81.50;;;;;;5007626;28;20136;-76
2023/11/18 10:23:22;;;;;;;2.88;0.55;;;15.60;81.40;;;;;;5015401;28;20037;-76
2023/11/18 10:25:54;;;;;;;1.35;0.40;;;15.70;81.60;;;;;;5023799;28;20583;-76
2023/11/18 10:28:35;;;;;;;1.65;0.35;;;15.70;81.50;;;;;;5007043;28;20371;-76
2023/11/18 10:31:07;;;;;;;1.98;0.60;;;15.70;81.40;;;;;;5022182;28;20068;-76
2023/11/18 10:33:43;;;;;;;2.17;0.55;;;15.80;81.50;;;;;;5022594;28;20064;-76
2023/11/18 10:36:25;;;;;;;2.05;0.50;;;15.80;81.30;;;;;;5017425;28;20062;-76
2023/11/18 10:38:55;;;;;;;3.45;0.43;;;15.90;81.40;;;;;;5025403;28;20079;-77
2023/11/18 10:41:25;;;;;;;1.52;0.60;;;15.90;81.20;;;;;;5053732;28;20069;-79
2023/11/18 10:44:07;;;;;;;5.25;0.65;;;16.00;81.20;;;;;;5023246;28;20091;-75
2023/11/18 10:46:35;;;;;;;1.55;0.60;;;16.00;81.10;;;;;;5027605;28;20421;-76
2023/11/18 10:49:02;;;;;;;2.10;0.50;;;16.10;81.20;;;;;;5022781;28;20037;-76
2023/11/18 10:51:34;;;;;;;4.65;0.43;;;16.10;80.90;;;;;;5024099;28;20037;-75
2023/11/18 10:54:03;;;;;;;3.13;0.35;;;16.20;80.80;;;;;;5032285;28;20033;-76
2023/11/18 10:56:30;;;;;;;4.18;0.88;;;16.20;80.50;;;;;;5033240;28;20040;-76
2023/11/18 10:59:05;;;;;;;1.30;0.43;;;16.30;80.30;;;;;;5022656;28;20064;-76
2023/11/18 11:01:33;;;;;;;2.63;0.60;;;16.40;80.10;;;;;;5017160;28;20040;-76
2023/11/18 11:04:04;;;;;;;1.27;0.40;;;16.50;79.80;;;;;;5010957;28;20248;-76
2023/11/18 11:06:31;;;;;;;2.60;0.93;;;16.60;79.60;;;;;;5020929;28;20037;-76
2023/11/18 11:08:58;;;;;;;1.98;0.70;;;16.60;79.30;;;;;;5022089;28;20029;-76
2023/11/18 11:11:34;;;;;;;1.00;0.30;;;16.80;79.30;;;;;;5020404;28;20350;-77
2023/11/18 11:14:04;;;;;;;1.00;0.63;;;16.80;78.80;;;;;;5022438;28;20477;-79
2023/11/18 11:16:44;;;;;;;2.22;0.52;;;17.00;78.60;;;;;;5024614;28;20067;-78
2023/11/18 11:19:44;;;;;;;2.28;0.40;;;17.10;78.30;;;;;;5023005;28;20521;-78
2023/11/18 11:22:15;;;;;;;0.88;0.38;;;17.20;78.00;;;;;;5020857;28;20068;-80
2023/11/18 11:25:00;;;;;;;2.17;0.65;;;17.30;77.90;;;;;;5015071;28;20028;-77
2023/11/18 11:27:39;;;;;;;1.30;0.60;;;17.40;77.40;;;;;;5028426;28;20037;-77
2023/11/18 11:30:13;;;;;;;0.95;0.40;;;17.60;77.50;;;;;;5018476;28;20043;-77
2023/11/18 11:32:51;;;;;;;0.75;0.40;;;17.60;77.10;;;;;;5015506;28;20038;-77
2023/11/18 11:35:33;;;;;;;3.95;0.77;;;17.80;76.90;;;;;;5025850;28;20520;-78
2023/11/18 11:38:09;;;;;;;1.75;0.63;;;17.90;76.60;;;;;;5031735;28;20080;-76
2023/11/18 11:40:38;;;;;;;2.47;1.10;;;18.00;76.50;;;;;;5025982;28;20064;-75
2023/11/18 11:43:15;;;;;;;1.80;0.57;;;18.10;76.20;;;;;;5011112;28;20292;-75
2023/11/18 11:45:42;;;;;;;1.40;0.60;;;18.20;76.00;;;;;;5018311;28;20515;-74
2023/11/18 11:48:13;;;;;;;1.55;0.63;;;18.20;75.70;;;;;;5021523;28;20120;-74
2023/11/18 11:51:03;;;;;;;2.22;0.57;;;18.30;75.50;;;;;;5025623;28;20033;-75
2023/11/18 11:53:45;;;;;;;2.50;0.88;;;18.40;75.00;;;;;;5016737;28;20111;-75
2023/11/18 11:56:19;;;;;;;4.15;1.15;;;18.50;74.90;;;;;;5022226;28;20038;-76
2023/11/18 11:58:51;;;;;;;13.23;2.47;;;18.50;74.80;;;;;;5018470;28;20380;-75
2023/11/18 12:01:33;;;;;;;10.43;1.92;;;18.60;74.90;;;;;;5007335;28;20457;-76
2023/11/18 12:04:06;;;;;;;12.45;2.50;;;18.60;74.80;;;;;;5018805;28;20374;-76
2023/11/18 12:06:41;;;;;;;19.85;7.78;;;18.70;75.10;;;;;;5036345;28;20522;-76
2023/11/18 12:09:09;;;;;;;19.30;6.00;;;18.80;75.60;;;;;;5020618;28;20156;-76
2023/11/18 12:11:41;;;;;;;23.35;8.00;;;18.80;75.80;;;;;;5024415;28;20043;-76
2023/11/18 12:14:32;;;;;;;20.27;6.68;;;18.90;76.20;;;;;;5018678;28;20327;-77
2023/11/18 12:17:14;;;;;;;28.85;12.75;;;18.90;76.50;;;;;;5011059;28;20034;-76
2023/11/18 12:19:46;;;;;;;17.50;10.80;;;19.00;76.90;;;;;;5017739;28;20043;-75
2023/11/18 12:22:23;;;;;;;18.75;9.85;;;19.10;77.10;;;;;;5017669;28;20049;-75
2023/11/18 12:25:16;;;;;;;14.27;8.60;;;19.10;77.10;;;;;;5013617;28;20601;-76
2023/11/18 12:27:46;;;;;;;;;;;19.10;76.80;;;;;;5018249;28;20128;-75
2023/11/18 12:30:16;;;;;;;15.30;7.85;;;19.20;76.90;;;;;;5015820;28;19913;-75
2023/11/18 12:33:05;;;;;;;11.68;7.05;;;19.20;76.80;;;;;;5022181;28;20078;-75
2023/11/18 12:35:50;;;;;;;12.45;7.38;;;19.20;76.40;;;;;;5024666;28;20410;-75
2023/11/18 12:38:28;;;;;;;14.25;7.20;;;19.20;76.00;;;;;;5019626;28;20037;-77
2023/11/18 12:41:02;;;;;;;14.00;6.47;;;19.20;75.90;;;;;;5018791;28;20049;-75
2023/11/18 12:43:51;;;;;;;10.65;6.57;;;19.20;75.70;;;;;;5018741;28;20492;-76
2023/11/18 12:46:20;;;;;;;11.07;5.47;;;19.20;75.50;;;;;;5019787;28;20029;-76
2023/11/18 12:48:51;;;;;;;14.07;6.95;;;19.20;75.30;;;;;;5020245;28;20041;-76
2023/11/18 12:51:22;;;;;;;12.90;5.85;;;19.20;75.00;;;;;;5025993;28;20045;-76
2023/11/18 12:53:50;;;;;;;9.82;4.97;;;19.20;74.90;;;;;;5024718;28;20089;-75
2023/11/18 12:56:20;;;;;;;10.93;5.25;;;19.20;74.60;;;;;;5023636;28;20143;-74
2023/11/18 12:58:47;;;;;;;9.00;5.35;;;19.20;74.40;;;;;;5018885;28;20092;-74
2023/11/18 13:01:15;;;;;;;8.43;4.60;;;19.20;74.30;;;;;;5024065;28;20052;-75